• Join FlightAware (Why Join?)
  • Login
  • US Flag 
05:03PM EDT


 

Airport Tracker/Info


-or-


 

Live Flight TrackerFlight Track Log ✈ N436MA ✈ 15-Jun-2013 ✈ KLYH - KBWI

Flight Track Log - Related Links

Times and Time Zones

All times are in EDT time to prevent confusion due to time zone crossing. See the N436MA flight status page for this flight to view local times or setup timezone preferences in your user account.

Time Position Orientation Groundspeed Altitude Reporting Facility
EDT Latitude Longitude Course Direction KTS MPH feet Rate Location/Type
12:20PM 37.3077 -78.9743 141° Southeast  Level FlightAware Approximate
12:21PM 37.3053 -78.9349 78° East  Level FlightAware Approximate
12:21PM 37.3167 -78.9606 71° East 141 162 5,000  Level Washington Center
12:22PM 37.3127 -78.8910 78° East  Level FlightAware Approximate
12:22PM 37.3267 -78.9036 78° East 150 173 5,000  Level Washington Center
12:23PM 37.3200 -78.8471 78° East  Level FlightAware Approximate
12:23PM 37.3361 -78.8569 76° East 156 180 5,000  Level Washington Center
12:24PM 37.3273 -78.8032 78° East  Level FlightAware Approximate
12:24PM 37.3461 -78.8053 76° East 156 180 5,100  Level Washington Center
12:25PM 37.3357 -78.7597 67° East  Level FlightAware Approximate
12:25PM 37.3536 -78.7583 79° East 156 180 5,000  Level Washington Center
12:26PM 37.3653 -78.7042 75° East 156 180 5,100  Climbing Washington Center
12:27PM 37.3750 -78.6522 77° East 156 180 5,100  Level Washington Center
12:28PM 37.3869 -78.5925 76° East 156 180 5,100  Level Washington Center
12:29PM 37.4008 -78.5408 71° East 156 180 5,100 -60 Level Washington Center
12:30PM 37.4083 -78.4861 80° East 156 180 5,000 -60 Descending Washington Center
12:31PM 37.4181 -78.4292 78° East 156 180 5,000  Level Washington Center
12:32PM 37.4275 -78.3822 76° East 161 185 5,000  Level Washington Center
12:33PM 37.4392 -78.3253 76° East 161 185 5,000  Level Washington Center
12:34PM 37.4489 -78.2733 77° East 161 185 5,000 -60 Level Washington Center
12:35PM 37.4606 -78.2133 76° East 161 185 4,900  Descending Washington Center
12:36PM 37.4658 -78.1561 83° East 161 185 5,000  Climbing Washington Center
12:37PM 37.4775 -78.1042 74° East 161 185 5,000  Level Washington Center
12:38PM 37.4869 -78.0519 77° East 161 185 5,000  Level Washington Center
12:39PM 37.5108 -78.0031 58° Northeast 161 185 5,000  Level Washington Center
12:40PM 37.5306 -77.9567 62° Northeast 161 185 5,000  Level Washington Center
12:41PM 37.5522 -77.9100 60° Northeast 155 178 5,000  Level Washington Center
12:42PM 37.5719 -77.8583 64° Northeast 155 178 5,000  Level Washington Center
12:43PM 37.5897 -77.8089 66° East 155 178 5,000  Level Washington Center
12:45PM 37.6333 -77.7000 63° Northeast 158 182 5,000  Level Potomac TRACON
12:47PM 37.6133 -77.6422 114° Southeast  Level FlightAware Approximate
12:48PM 37.7000 -77.5500 114° Southeast 157 181 5,000  Level Potomac TRACON
12:50PM 37.7333 -77.4500 67° East 155 178 5,000  Level Potomac TRACON
12:51PM 37.7500 -77.4000 67° East 160 184 5,000  Level Potomac TRACON
12:53PM 37.8000 -77.3000 58° Northeast 161 185 5,000  Level Potomac TRACON
12:54PM 37.5130 -77.3539 114° Southeast  Level FlightAware Approximate
12:55PM 37.8227 -77.2370 66° East  Level FlightAware Approximate
12:56PM 37.8500 -77.1667 66° East 166 191 5,000  Level Potomac TRACON
12:57PM 37.8667 -77.1000 72° East 156 180 5,000  Level Potomac TRACON
12:58PM 37.8833 -77.0500 67° East 160 184 5,000  Level Potomac TRACON
12:59PM 37.9167 -77.0167 38° Northeast 155 178 5,000  Level Potomac TRACON
01:00PM 37.9297 -76.9714 70° East 155 178 5,000  Level Washington Center
01:01PM 37.9492 -76.9083 69° East 160 184 5,000  Level Washington Center
01:02PM 37.9396 -76.9097 66° East  Level FlightAware Approximate
01:02PM 37.9706 -76.8614 60° Northeast 159 183 5,000  Level Washington Center
01:03PM 37.9961 -76.8144 55° Northeast 158 182 5,000  Level Washington Center
01:04PM 38.0214 -76.7806 47° Northeast 151 174 5,000  Level Washington Center
01:05PM 38.0531 -76.7389 46° Northeast 156 180 5,000  Level Washington Center
01:06PM 38.0847 -76.6972 46° Northeast 161 185 5,000  Level Washington Center
01:07PM 38.1244 -76.6844 14° North 152 175 5,000  Level Washington Center
01:08PM 38.1622 -76.6667 20° North 152 175 5,000  Level Washington Center
01:09PM 38.2019 -76.6539 14° North 153 176 5,000  Level Washington Center
01:10PM 38.2436 -76.6361 19° North 147 169 5,000  Level Washington Center
01:11PM 38.2833 -76.6233 14° North 144 166 5,000  Level Washington Center
01:12PM 38.3211 -76.6053 21° North 149 171 5,000  Level Washington Center
01:13PM 38.3608 -76.5953 11° North 151 174 5,000  Level Washington Center
01:14PM 38.4006 -76.5747 22° Northeast 152 175 5,000  Level Washington Center
01:15PM 38.4364 -76.5328 43° Northeast 159 183 5,000  Level Washington Center
01:16PM 38.4658 -76.4986 42° Northeast 159 183 5,000  Level Washington Center
01:17PM 38.4975 -76.4564 46° Northeast 158 182 5,000  Level Washington Center
01:20PM 38.5667 -76.3500 50° Northeast 157 181 5,000 -60 Level Potomac TRACON
01:21PM 38.6000 -76.3167 38° Northeast 163 188 4,900 -360 Descending Potomac TRACON
01:22PM 38.6500 -76.3167 360° North 154 177 4,400 -540 Descending Potomac TRACON
01:23PM 38.6833 -76.3000 21° North 164 189 3,900 -540 Descending Potomac TRACON
01:24PM 38.7333 -76.3000 360° North 162 186 3,400 -420 Descending Potomac TRACON
01:25PM 38.7833 -76.3000 360° North 162 186 3,100 -240 Descending Potomac TRACON
01:26PM 38.8167 -76.3333 322° Northwest 144 166 3,000 -60 Descending Potomac TRACON
01:27PM 38.8500 -76.3500 339° North 140 161 3,000  Level Potomac TRACON
01:28PM 38.8833 -76.3833 322° Northwest 138 159 3,000  Level Potomac TRACON
01:29PM 38.9167 -76.4167 322° Northwest 140 161 3,000  Level Potomac TRACON
01:30PM 38.9333 -76.4333 322° Northwest 140 161 3,000 -60 Level Potomac TRACON
01:31PM 38.9667 -76.4667 322° Northwest 147 169 2,900 -240 Descending Potomac TRACON
01:32PM 39.0000 -76.5000 322° Northwest 149 171 2,600 -360 Descending Potomac TRACON
01:33PM 39.0333 -76.5333 322° Northwest 157 181 2,200 -300 Descending Potomac TRACON
01:34PM 39.0667 -76.5667 322° Northwest 145 167 2,000 -240 Descending Potomac TRACON
01:35PM 39.1000 -76.5833 339° North 128 147 1,800 -480 Descending Potomac TRACON
01:36PM 39.1333 -76.6167 322° Northwest 96 110 1,100 -540 Descending Potomac TRACON
01:37PM 39.1500 -76.6333 322° Northwest 90 104 800 -360 Descending Potomac TRACON
01:39PM 39.1667 -76.6667 330° Northwest  Level FlightAware Approximate
01:46PM 39.1754 -76.6683 330° Northwest  Level Estimated
01:47PM 39.1754 -76.6683 330° Northwest  Level Estimated
01:48PM 39.1754 -76.6683 330° Northwest  Level Estimated